Terminal Aerodrome Forecast
Issued by NWS

Home | Current Version | Previous Version | Text Only | Print | Product List | Glossary On
Versions: 1 2 3 4 5 6 7 8 9 10 11 12 13 14 15 16
000
FTUS44 KBMX 010805 AAA
TAFTOI
TAF AMD
KTOI 010805Z 0108/0206 02003KT P6SM BKN050
      TEMPO 0110/0112 4SM BR SCT050
     FM011300 03008KT P6SM SCT250
     FM011800 03008KT P6SM BKN050
     FM020200 00000KT P6SM SKC=

USA.gov is the U.S. government's official web portal to all federal, state and local government web resources and services.